Flight Track Log - Related Links

Times and Time Zones

All times are in EDT time to prevent confusion due to time zone crossing. See the SKW5631 flight status page for this flight to view local times or setup timezone preferences in your user account.

Time Position Orientation Groundspeed Altitude Reporting Facility
EDT Latitude Longitude Course Direction KTS MPH feet Rate Location/Type
Mon 09:37:53 PM 39.9500 -104.6833 346° North 232 267 8,100  Level Denver TRACON
Mon 09:38:47 PM 40.0167 -104.6667 11° North 285 328 9,300 1,333 Climbing Denver TRACON
Mon 09:39:14 PM 40.0581 -104.6694 357° North 304 350 9,900 539 Climbing Denver Center
Mon 09:40:16 PM 40.1361 -104.6892 349° North 291 335 10,100 726 Climbing Denver Center
Mon 09:41:18 PM 40.2217 -104.7089 350° North 292 336 11,400 1,694 Climbing Denver Center
Mon 09:42:20 PM 40.3019 -104.7319 348° North 295 339 13,600 1,935 Climbing Denver Center
Mon 09:43:00 PM 40.4013 -104.8449 346° North  Level FlightAware Approximate
Mon 09:43:22 PM 40.3917 -104.7528 350° North 306 352 15,400  Level Denver Center
Mon 09:44:24 PM 40.4833 -104.7783 348° North 334 384 16,800 2,081 Climbing Denver Center
Mon 09:45:26 PM 40.5833 -104.8006 350° North 340 391 19,700 2,032 Climbing Denver Center
Mon 09:46:28 PM 40.6747 -104.8267 348° North 342 394 21,000 1,306 Climbing Denver Center
Mon 09:47:30 PM 40.7644 -104.8464 351° North 343 395 22,400 1,355 Climbing Denver Center
Mon 09:48:32 PM 40.8567 -104.8844 343° North 342 394 23,800 1,258 Climbing Denver Center
Mon 09:49:34 PM 40.9653 -104.9386 339° North 354 407 25,000 1,065 Climbing Denver Center
Mon 09:50:36 PM 41.0589 -104.9842 340° North 361 415 26,000 726 Climbing Denver Center
Mon 09:51:38 PM 41.1511 -105.0292 340° North 367 422 26,500 532 Climbing Denver Center
Mon 09:52:40 PM 41.2600 -105.0856 339° North 374 430 27,100 532 Climbing Denver Center
Mon 09:53:42 PM 41.3558 -105.1325 340° North 380 437 27,600 581 Climbing Denver Center
Mon 09:54:44 PM 41.4703 -105.1881 340° North 390 449 28,300 629 Climbing Denver Center
Mon 09:55:46 PM 41.5714 -105.2458 337° Northwest 410 472 28,900 919 Climbing Denver Center
Mon 09:56:48 PM 41.6703 -105.3497 322° Northwest 402 463 30,200 932 Climbing Denver Center
Mon 09:58:27 PM 41.8022 -105.4950 321° Northwest 390 449 31,400 638 Climbing Salt Lake Center
Mon 09:59:28 PM 41.8844 -105.5842 321° Northwest 393 452 31,900 419 Climbing Salt Lake Center
Mon 09:59:53 PM 41.9272 -105.6289 322° Northwest 396 456 32,000 69 Climbing Denver Center
Mon 10:00:55 PM 42.0064 -105.7164 321° Northwest 391 450 32,000  Level Denver Center
Mon 10:01:57 PM 42.0944 -105.8114 321° Northwest 370 426 32,000  Level Denver Center
Mon 10:02:59 PM 42.1697 -105.8961 320° Northwest 372 428 32,000  Level Denver Center
Mon 10:04:01 PM 42.2603 -105.9961 321° Northwest 377 434 32,000  Level Denver Center
Mon 10:05:03 PM 42.3383 -106.0814 321° Northwest 377 434 32,000  Level Denver Center
Mon 10:06:05 PM 42.4286 -106.1811 321° Northwest 376 433 32,000  Level Denver Center
Mon 10:07:07 PM 42.5050 -106.2675 320° Northwest 374 430 32,000  Level Denver Center
Mon 10:08:09 PM 42.5953 -106.3681 321° Northwest 374 430 32,000  Level Denver Center
Mon 10:09:11 PM 42.6725 -106.4569 320° Northwest 378 435 32,000  Level Denver Center
Mon 10:10:13 PM 42.7497 -106.5433 321° Northwest 377 434 32,000  Level Denver Center
Mon 10:11:15 PM 42.8389 -106.6447 320° Northwest 375 432 32,000  Level Denver Center
Mon 10:12:17 PM 42.9156 -106.7356 319° Northwest 378 435 32,000  Level Denver Center
Mon 10:13:18 PM 42.9961 -106.8494 314° West 375 432 32,000  Level Denver Center
Mon 10:14:20 PM 43.0644 -106.9453 314° West 370 426 32,000  Level Denver Center
Mon 10:15:22 PM 43.1419 -107.0561 314° West 362 417 32,000  Level Denver Center
Mon 10:15:52 PM 43.1728 -107.1008 313° West 356 410 32,000  Level Salt Lake Center
Mon 10:16:24 PM 43.2061 -107.1481 314° West 354 407 32,000  Level Denver Center
Mon 10:17:26 PM 43.2831 -107.2572 314° West 355 409 32,000  Level Denver Center
Mon 10:18:28 PM 43.3486 -107.3525 313° West 358 412 32,000  Level Denver Center
Mon 10:18:57 PM 43.3811 -107.3994 314° West 357 411 32,000  Level Salt Lake Center
Mon 10:19:58 PM 43.4450 -107.4939 313° West 354 407 32,000  Level Salt Lake Center
Mon 10:21:00 PM 43.5239 -107.6067 314° West 362 417 32,000 -823 Level Salt Lake Center
Mon 10:22:02 PM 43.5892 -107.7031 313° West 361 415 30,300 -1,854 Descending Salt Lake Center
Mon 10:23:03 PM 43.6597 -107.8078 313° West 340 391 28,200 -1,902 Descending Salt Lake Center
Mon 10:24:05 PM 43.7142 -107.8897 313° West 309 356 26,400 -1,854 Descending Salt Lake Center
Mon 10:25:06 PM 43.7667 -107.9669 313° West 290 334 24,400 -2,000 Descending Salt Lake Center
Mon 10:26:08 PM 43.8267 -108.0544 314° West 282 325 22,300 -1,805 Descending Salt Lake Center
Mon 10:27:09 PM 43.8750 -108.1283 312° West 272 313 20,700 -1,659 Descending Salt Lake Center
Mon 10:28:11 PM 43.9306 -108.2094 314° West 262 302 18,900 -1,645 Descending Salt Lake Center
Mon 10:29:13 PM 43.9756 -108.2781 312° West 256 295 17,300 -1,463 Descending Salt Lake Center
Mon 10:30:14 PM 44.0203 -108.3458 313° West 253 291 15,900 -1,268 Descending Salt Lake Center
Mon 10:31:16 PM 44.0733 -108.4236 314° West 250 288 14,700 -1,171 Descending Salt Lake Center
Mon 10:32:17 PM 44.1172 -108.4889 313° West 246 283 13,500 -1,220 Descending Salt Lake Center
Mon 10:33:19 PM 44.1683 -108.5656 313° West 243 280 12,200 -1,122 Descending Salt Lake Center
Mon 10:34:20 PM 44.2119 -108.6300 313° West 241 277 11,200 -927 Descending Salt Lake Center
Mon 10:35:22 PM 44.2550 -108.6942 313° West 239 275 10,300 -585 Descending Salt Lake Center
Mon 10:36:23 PM 44.3017 -108.7664 312° West 232 267 10,000 -537 Descending Salt Lake Center
Mon 10:37:25 PM 44.3400 -108.8194 315° West 220 253 9,200 -780 Descending Salt Lake Center
Mon 10:38:26 PM 44.3847 -108.8681 322° Northwest 200 230 8,400 -634 Descending Salt Lake Center
Mon 10:39:28 PM 44.4175 -108.9053 321° Northwest 180 207 7,900 -293 Descending Salt Lake Center
Mon 10:40:29 PM 44.4489 -108.9419 320° Northwest 166 191 7,800 -585 Descending Salt Lake Center
Mon 10:41:31 PM 44.4836 -108.9842 319° Northwest 156 180 6,700 -585 Descending Salt Lake Center
Mon 10:42:32 PM 44.4875 -109.0339 276° West 161 185 6,600 -537 Descending Salt Lake Center
Mon 10:43:34 PM 44.5078 -109.0550 323° Northwest 168 193 5,600 -585 Descending Salt Lake Center
Mon 10:44:35 PM 44.5267 -109.0103 59° Northeast 163 188 5,400 -197 Descending Salt Lake Center
Mon 10:46:00 PM 44.5167 -109.0167 325° Northwest  Level FlightAware Approximate

Login

Don't have an account? Register now (free) for customized features, flight alerts, and more!